sensor_id;sensor_type;location;lat;lon;timestamp;P1;durP1;ratioP1;P2;durP2;ratioP2
22929;SDS011;11630;42.660;23.292;2023-08-01T00:01:58;3.73;;;2.30;;
22929;SDS011;11630;42.660;23.292;2023-08-01T00:04:29;2.13;;;1.93;;
22929;SDS011;11630;42.660;23.292;2023-08-01T00:07:00;2.30;;;2.10;;
22929;SDS011;11630;42.660;23.292;2023-08-01T00:09:31;4.43;;;2.20;;
22929;SDS011;11630;42.660;23.292;2023-08-01T00:12:02;6.57;;;2.30;;
22929;SDS011;11630;42.660;23.292;2023-08-01T00:14:32;5.10;;;2.23;;
22929;SDS011;11630;42.660;23.292;2023-08-01T00:17:04;4.83;;;2.40;;
22929;SDS011;11630;42.660;23.292;2023-08-01T00:19:35;2.17;;;1.70;;
22929;SDS011;11630;42.660;23.292;2023-08-01T00:22:05;4.03;;;2.13;;
22929;SDS011;11630;42.660;23.292;2023-08-01T00:24:35;5.00;;;2.53;;
22929;SDS011;11630;42.660;23.292;2023-08-01T00:27:06;3.67;;;2.50;;
22929;SDS011;11630;42.660;23.292;2023-08-01T00:29:37;8.60;;;2.47;;
22929;SDS011;11630;42.660;23.292;2023-08-01T00:32:07;2.30;;;2.10;;
22929;SDS011;11630;42.660;23.292;2023-08-01T00:34:38;2.20;;;2.03;;
22929;SDS011;11630;42.660;23.292;2023-08-01T00:37:12;2.07;;;1.90;;
22929;SDS011;11630;42.660;23.292;2023-08-01T00:39:42;2.43;;;1.90;;
22929;SDS011;11630;42.660;23.292;2023-08-01T00:42:14;2.20;;;2.00;;
22929;SDS011;11630;42.660;23.292;2023-08-01T00:44:45;4.90;;;2.70;;
22929;SDS011;11630;42.660;23.292;2023-08-01T00:47:16;3.10;;;2.27;;
22929;SDS011;11630;42.660;23.292;2023-08-01T00:49:47;4.17;;;2.33;;
22929;SDS011;11630;42.660;23.292;2023-08-01T00:52:18;3.53;;;2.23;;
22929;SDS011;11630;42.660;23.292;2023-08-01T00:54:49;4.40;;;2.10;;
22929;SDS011;11630;42.660;23.292;2023-08-01T00:57:21;2.70;;;2.50;;
22929;SDS011;11630;42.660;23.292;2023-08-01T00:59:52;4.67;;;2.20;;
22929;SDS011;11630;42.660;23.292;2023-08-01T01:02:23;2.77;;;2.13;;
22929;SDS011;11630;42.660;23.292;2023-08-01T01:04:53;2.60;;;2.17;;
22929;SDS011;11630;42.660;23.292;2023-08-01T01:07:24;2.67;;;2.47;;
22929;SDS011;11630;42.660;23.292;2023-08-01T01:09:57;5.60;;;2.30;;
22929;SDS011;11630;42.660;23.292;2023-08-01T01:12:28;2.77;;;2.30;;
22929;SDS011;11630;42.660;23.292;2023-08-01T01:14:59;2.77;;;2.57;;
22929;SDS011;11630;42.660;23.292;2023-08-01T01:17:30;2.33;;;2.10;;
22929;SDS011;11630;42.660;23.292;2023-08-01T01:20:00;2.77;;;2.57;;
22929;SDS011;11630;42.660;23.292;2023-08-01T01:22:31;2.77;;;2.10;;
22929;SDS011;11630;42.660;23.292;2023-08-01T01:25:02;4.23;;;2.40;;
22929;SDS011;11630;42.660;23.292;2023-08-01T01:27:35;4.37;;;2.43;;
22929;SDS011;11630;42.660;23.292;2023-08-01T01:30:06;6.43;;;2.60;;
22929;SDS011;11630;42.660;23.292;2023-08-01T01:32:37;2.90;;;2.53;;
22929;SDS011;11630;42.660;23.292;2023-08-01T01:35:09;3.47;;;2.27;;
22929;SDS011;11630;42.660;23.292;2023-08-01T01:37:40;2.80;;;2.10;;
22929;SDS011;11630;42.660;23.292;2023-08-01T01:40:11;3.27;;;2.40;;
22929;SDS011;11630;42.660;23.292;2023-08-01T01:42:41;3.70;;;2.67;;
22929;SDS011;11630;42.660;23.292;2023-08-01T01:45:13;2.37;;;2.17;;
22929;SDS011;11630;42.660;23.292;2023-08-01T01:47:44;3.03;;;2.20;;
22929;SDS011;11630;42.660;23.292;2023-08-01T01:50:14;4.93;;;2.53;;
22929;SDS011;11630;42.660;23.292;2023-08-01T01:52:45;2.73;;;2.20;;
22929;SDS011;11630;42.660;23.292;2023-08-01T01:55:15;5.50;;;2.33;;
22929;SDS011;11630;42.660;23.292;2023-08-01T01:57:46;2.43;;;2.23;;
22929;SDS011;11630;42.660;23.292;2023-08-01T02:00:17;2.97;;;2.33;;
22929;SDS011;11630;42.660;23.292;2023-08-01T02:02:51;3.87;;;3.23;;
22929;SDS011;11630;42.660;23.292;2023-08-01T02:05:22;3.33;;;2.33;;
22929;SDS011;11630;42.660;23.292;2023-08-01T02:07:52;2.83;;;2.13;;
22929;SDS011;11630;42.660;23.292;2023-08-01T02:10:26;5.77;;;2.83;;
22929;SDS011;11630;42.660;23.292;2023-08-01T02:12:59;4.90;;;2.17;;
22929;SDS011;11630;42.660;23.292;2023-08-01T02:15:29;2.53;;;2.07;;
22929;SDS011;11630;42.660;23.292;2023-08-01T02:18:00;2.93;;;2.57;;
22929;SDS011;11630;42.660;23.292;2023-08-01T02:20:32;2.37;;;1.83;;
22929;SDS011;11630;42.660;23.292;2023-08-01T02:23:03;3.50;;;2.43;;
22929;SDS011;11630;42.660;23.292;2023-08-01T02:25:38;2.40;;;2.20;;
22929;SDS011;11630;42.660;23.292;2023-08-01T02:28:10;2.67;;;2.10;;
22929;SDS011;11630;42.660;23.292;2023-08-01T02:30:40;2.23;;;2.00;;
22929;SDS011;11630;42.660;23.292;2023-08-01T02:33:11;4.90;;;2.33;;
22929;SDS011;11630;42.660;23.292;2023-08-01T02:35:42;4.37;;;2.40;;
22929;SDS011;11630;42.660;23.292;2023-08-01T02:38:13;2.40;;;2.00;;
22929;SDS011;11630;42.660;23.292;2023-08-01T02:40:44;2.40;;;2.20;;
22929;SDS011;11630;42.660;23.292;2023-08-01T02:43:16;5.07;;;2.20;;
22929;SDS011;11630;42.660;23.292;2023-08-01T02:45:46;2.57;;;2.27;;
22929;SDS011;11630;42.660;23.292;2023-08-01T02:48:16;4.20;;;2.27;;
22929;SDS011;11630;42.660;23.292;2023-08-01T02:50:47;2.30;;;2.10;;
22929;SDS011;11630;42.660;23.292;2023-08-01T02:53:17;2.67;;;2.27;;
22929;SDS011;11630;42.660;23.292;2023-08-01T02:55:48;6.10;;;2.57;;
22929;SDS011;11630;42.660;23.292;2023-08-01T02:58:19;2.50;;;2.30;;
22929;SDS011;11630;42.660;23.292;2023-08-01T03:00:50;2.90;;;2.27;;
22929;SDS011;11630;42.660;23.292;2023-08-01T03:03:21;5.33;;;2.53;;
22929;SDS011;11630;42.660;23.292;2023-08-01T03:05:52;2.03;;;1.83;;
22929;SDS011;11630;42.660;23.292;2023-08-01T03:08:22;4.37;;;2.63;;
22929;SDS011;11630;42.660;23.292;2023-08-01T03:10:53;3.13;;;2.23;;
22929;SDS011;11630;42.660;23.292;2023-08-01T03:13:23;5.50;;;2.50;;
22929;SDS011;11630;42.660;23.292;2023-08-01T03:15:56;8.90;;;2.80;;
22929;SDS011;11630;42.660;23.292;2023-08-01T03:18:27;4.53;;;3.00;;
22929;SDS011;11630;42.660;23.292;2023-08-01T03:20:58;4.33;;;2.80;;
22929;SDS011;11630;42.660;23.292;2023-08-01T03:23:29;6.10;;;2.60;;
22929;SDS011;11630;42.660;23.292;2023-08-01T03:25:58;7.27;;;2.90;;
22929;SDS011;11630;42.660;23.292;2023-08-01T03:28:29;3.17;;;2.17;;
22929;SDS011;11630;42.660;23.292;2023-08-01T03:31:00;5.23;;;2.90;;
22929;SDS011;11630;42.660;23.292;2023-08-01T03:33:32;5.27;;;2.90;;
22929;SDS011;11630;42.660;23.292;2023-08-01T03:36:02;10.20;;;3.37;;
22929;SDS011;11630;42.660;23.292;2023-08-01T03:38:33;4.03;;;2.60;;
22929;SDS011;11630;42.660;23.292;2023-08-01T03:41:04;3.40;;;2.57;;
22929;SDS011;11630;42.660;23.292;2023-08-01T03:43:34;3.93;;;3.30;;
22929;SDS011;11630;42.660;23.292;2023-08-01T03:46:05;7.37;;;2.53;;
22929;SDS011;11630;42.660;23.292;2023-08-01T03:48:36;6.40;;;2.50;;
22929;SDS011;11630;42.660;23.292;2023-08-01T03:51:09;3.70;;;2.50;;
22929;SDS011;11630;42.660;23.292;2023-08-01T03:53:39;3.67;;;2.10;;
22929;SDS011;11630;42.660;23.292;2023-08-01T03:56:10;6.80;;;2.93;;
22929;SDS011;11630;42.660;23.292;2023-08-01T03:58:40;6.00;;;2.67;;
22929;SDS011;11630;42.660;23.292;2023-08-01T04:01:10;2.97;;;2.67;;
22929;SDS011;11630;42.660;23.292;2023-08-01T04:03:41;3.83;;;2.90;;
22929;SDS011;11630;42.660;23.292;2023-08-01T04:06:11;4.87;;;2.50;;
22929;SDS011;11630;42.660;23.292;2023-08-01T04:08:42;5.80;;;3.07;;
22929;SDS011;11630;42.660;23.292;2023-08-01T04:11:13;5.43;;;2.83;;
22929;SDS011;11630;42.660;23.292;2023-08-01T04:13:44;8.33;;;3.30;;
22929;SDS011;11630;42.660;23.292;2023-08-01T04:16:17;13.53;;;3.33;;
22929;SDS011;11630;42.660;23.292;2023-08-01T04:18:48;3.83;;;2.80;;
22929;SDS011;11630;42.660;23.292;2023-08-01T04:21:19;3.33;;;2.97;;
22929;SDS011;11630;42.660;23.292;2023-08-01T04:23:50;9.50;;;3.87;;
22929;SDS011;11630;42.660;23.292;2023-08-01T04:26:21;6.10;;;3.60;;
22929;SDS011;11630;42.660;23.292;2023-08-01T04:28:51;4.87;;;3.50;;
22929;SDS011;11630;42.660;23.292;2023-08-01T04:31:22;6.00;;;4.23;;
22929;SDS011;11630;42.660;23.292;2023-08-01T04:33:53;13.83;;;6.13;;
22929;SDS011;11630;42.660;23.292;2023-08-01T04:36:24;10.83;;;4.47;;
22929;SDS011;11630;42.660;23.292;2023-08-01T04:38:55;9.87;;;5.10;;
22929;SDS011;11630;42.660;23.292;2023-08-01T04:41:26;5.67;;;3.23;;
22929;SDS011;11630;42.660;23.292;2023-08-01T04:43:57;9.30;;;4.40;;
22929;SDS011;11630;42.660;23.292;2023-08-01T04:46:28;4.93;;;3.43;;
22929;SDS011;11630;42.660;23.292;2023-08-01T04:48:59;5.23;;;4.73;;
22929;SDS011;11630;42.660;23.292;2023-08-01T04:51:33;6.67;;;4.60;;
22929;SDS011;11630;42.660;23.292;2023-08-01T04:54:04;13.30;;;5.63;;
22929;SDS011;11630;42.660;23.292;2023-08-01T04:56:34;7.73;;;4.10;;
22929;SDS011;11630;42.660;23.292;2023-08-01T04:59:05;12.53;;;4.43;;
22929;SDS011;11630;42.660;23.292;2023-08-01T05:01:36;8.47;;;5.37;;
22929;SDS011;11630;42.660;23.292;2023-08-01T05:04:07;4.87;;;4.40;;
22929;SDS011;11630;42.660;23.292;2023-08-01T05:06:38;5.10;;;4.60;;
22929;SDS011;11630;42.660;23.292;2023-08-01T05:09:09;7.10;;;4.50;;
22929;SDS011;11630;42.660;23.292;2023-08-01T05:11:40;6.43;;;4.90;;
22929;SDS011;11630;42.660;23.292;2023-08-01T05:14:11;11.03;;;5.90;;
22929;SDS011;11630;42.660;23.292;2023-08-01T05:16:42;8.20;;;6.00;;
22929;SDS011;11630;42.660;23.292;2023-08-01T05:19:12;12.37;;;7.43;;
22929;SDS011;11630;42.660;23.292;2023-08-01T05:21:48;5.03;;;4.17;;
22929;SDS011;11630;42.660;23.292;2023-08-01T05:24:18;6.87;;;4.23;;
22929;SDS011;11630;42.660;23.292;2023-08-01T05:26:49;10.50;;;5.23;;
22929;SDS011;11630;42.660;23.292;2023-08-01T05:29:20;8.73;;;4.17;;
22929;SDS011;11630;42.660;23.292;2023-08-01T05:31:50;20.27;;;4.80;;
22929;SDS011;11630;42.660;23.292;2023-08-01T05:34:21;5.83;;;5.10;;
22929;SDS011;11630;42.660;23.292;2023-08-01T05:36:52;10.97;;;5.67;;
22929;SDS011;11630;42.660;23.292;2023-08-01T05:39:23;9.93;;;4.20;;
22929;SDS011;11630;42.660;23.292;2023-08-01T05:41:54;7.67;;;4.57;;
22929;SDS011;11630;42.660;23.292;2023-08-01T05:44:25;7.57;;;3.83;;
22929;SDS011;11630;42.660;23.292;2023-08-01T05:46:56;6.57;;;4.43;;
22929;SDS011;11630;42.660;23.292;2023-08-01T05:49:27;7.73;;;3.87;;
22929;SDS011;11630;42.660;23.292;2023-08-01T05:51:57;16.17;;;9.63;;
22929;SDS011;11630;42.660;23.292;2023-08-01T05:54:28;9.00;;;4.30;;
22929;SDS011;11630;42.660;23.292;2023-08-01T05:56:59;8.93;;;4.47;;
22929;SDS011;11630;42.660;23.292;2023-08-01T05:59:30;10.13;;;3.70;;
22929;SDS011;11630;42.660;23.292;2023-08-01T06:01:59;8.07;;;3.40;;
22929;SDS011;11630;42.660;23.292;2023-08-01T06:04:30;9.10;;;3.70;;
22929;SDS011;11630;42.660;23.292;2023-08-01T06:07:01;6.57;;;3.17;;
22929;SDS011;11630;42.660;23.292;2023-08-01T06:09:33;5.23;;;2.90;;
22929;SDS011;11630;42.660;23.292;2023-08-01T06:12:04;7.93;;;3.40;;
22929;SDS011;11630;42.660;23.292;2023-08-01T06:14:35;12.60;;;4.27;;
22929;SDS011;11630;42.660;23.292;2023-08-01T06:17:06;4.50;;;2.43;;
22929;SDS011;11630;42.660;23.292;2023-08-01T06:19:37;5.23;;;2.60;;
22929;SDS011;11630;42.660;23.292;2023-08-01T06:22:08;4.90;;;2.30;;
22929;SDS011;11630;42.660;23.292;2023-08-01T06:24:38;7.23;;;2.70;;
22929;SDS011;11630;42.660;23.292;2023-08-01T06:27:09;3.67;;;2.90;;
22929;SDS011;11630;42.660;23.292;2023-08-01T06:29:39;6.03;;;2.70;;
22929;SDS011;11630;42.660;23.292;2023-08-01T06:32:10;3.63;;;2.33;;
22929;SDS011;11630;42.660;23.292;2023-08-01T06:34:41;6.17;;;3.00;;
22929;SDS011;11630;42.660;23.292;2023-08-01T06:37:12;4.60;;;2.27;;
22929;SDS011;11630;42.660;23.292;2023-08-01T06:39:42;3.80;;;2.57;;
22929;SDS011;11630;42.660;23.292;2023-08-01T06:42:14;8.80;;;2.73;;
22929;SDS011;11630;42.660;23.292;2023-08-01T06:44:45;3.03;;;2.33;;
22929;SDS011;11630;42.660;23.292;2023-08-01T06:47:15;3.13;;;2.80;;
22929;SDS011;11630;42.660;23.292;2023-08-01T06:49:47;5.07;;;2.70;;
22929;SDS011;11630;42.660;23.292;2023-08-01T06:52:18;10.10;;;2.80;;
22929;SDS011;11630;42.660;23.292;2023-08-01T06:54:49;5.33;;;3.23;;
22929;SDS011;11630;42.660;23.292;2023-08-01T06:57:19;4.37;;;2.80;;
22929;SDS011;11630;42.660;23.292;2023-08-01T06:59:55;5.83;;;2.50;;
22929;SDS011;11630;42.660;23.292;2023-08-01T07:02:22;4.57;;;2.80;;
22929;SDS011;11630;42.660;23.292;2023-08-01T07:04:53;5.47;;;3.00;;
22929;SDS011;11630;42.660;23.292;2023-08-01T07:07:23;5.90;;;2.70;;
22929;SDS011;11630;42.660;23.292;2023-08-01T07:09:55;9.53;;;2.90;;
22929;SDS011;11630;42.660;23.292;2023-08-01T07:12:26;7.03;;;2.57;;
22929;SDS011;11630;42.660;23.292;2023-08-01T07:14:56;8.70;;;2.73;;
22929;SDS011;11630;42.660;23.292;2023-08-01T07:17:27;3.30;;;2.57;;
22929;SDS011;11630;42.660;23.292;2023-08-01T07:19:58;4.37;;;2.90;;
22929;SDS011;11630;42.660;23.292;2023-08-01T07:22:28;5.60;;;2.80;;
22929;SDS011;11630;42.660;23.292;2023-08-01T07:24:59;3.40;;;2.60;;
22929;SDS011;11630;42.660;23.292;2023-08-01T07:27:29;8.20;;;3.30;;
22929;SDS011;11630;42.660;23.292;2023-08-01T07:30:01;5.43;;;3.50;;
22929;SDS011;11630;42.660;23.292;2023-08-01T07:32:33;4.60;;;2.73;;
22929;SDS011;11630;42.660;23.292;2023-08-01T07:35:07;8.07;;;3.27;;
22929;SDS011;11630;42.660;23.292;2023-08-01T07:37:39;7.70;;;2.90;;
22929;SDS011;11630;42.660;23.292;2023-08-01T07:40:10;4.53;;;2.80;;
22929;SDS011;11630;42.660;23.292;2023-08-01T07:42:41;6.27;;;3.00;;
22929;SDS011;11630;42.660;23.292;2023-08-01T07:45:12;4.80;;;3.33;;
22929;SDS011;11630;42.660;23.292;2023-08-01T07:47:47;6.63;;;3.40;;
22929;SDS011;11630;42.660;23.292;2023-08-01T07:50:13;5.60;;;3.23;;
22929;SDS011;11630;42.660;23.292;2023-08-01T07:52:44;5.70;;;2.60;;
22929;SDS011;11630;42.660;23.292;2023-08-01T07:55:15;4.83;;;3.13;;
22929;SDS011;11630;42.660;23.292;2023-08-01T07:57:46;3.90;;;2.90;;
22929;SDS011;11630;42.660;23.292;2023-08-01T08:00:18;9.80;;;4.03;;
22929;SDS011;11630;42.660;23.292;2023-08-01T08:02:49;4.57;;;2.70;;
22929;SDS011;11630;42.660;23.292;2023-08-01T08:05:19;8.63;;;3.60;;
22929;SDS011;11630;42.660;23.292;2023-08-01T08:07:50;5.03;;;3.03;;
22929;SDS011;11630;42.660;23.292;2023-08-01T08:10:21;6.20;;;3.30;;
22929;SDS011;11630;42.660;23.292;2023-08-01T08:12:51;9.60;;;3.17;;
22929;SDS011;11630;42.660;23.292;2023-08-01T08:15:23;4.50;;;2.70;;
22929;SDS011;11630;42.660;23.292;2023-08-01T08:17:53;7.20;;;3.03;;
22929;SDS011;11630;42.660;23.292;2023-08-01T08:20:24;6.50;;;3.23;;
22929;SDS011;11630;42.660;23.292;2023-08-01T08:22:55;8.80;;;3.60;;
22929;SDS011;11630;42.660;23.292;2023-08-01T08:25:26;7.27;;;3.43;;
22929;SDS011;11630;42.660;23.292;2023-08-01T08:27:56;4.87;;;2.80;;
22929;SDS011;11630;42.660;23.292;2023-08-01T08:30:28;3.93;;;3.00;;
22929;SDS011;11630;42.660;23.292;2023-08-01T08:32:58;7.13;;;3.27;;
22929;SDS011;11630;42.660;23.292;2023-08-01T08:35:28;21.70;;;3.93;;
22929;SDS011;11630;42.660;23.292;2023-08-01T08:37:59;7.33;;;3.50;;
22929;SDS011;11630;42.660;23.292;2023-08-01T08:40:31;14.63;;;3.90;;
22929;SDS011;11630;42.660;23.292;2023-08-01T08:43:02;4.63;;;3.40;;
22929;SDS011;11630;42.660;23.292;2023-08-01T08:45:33;4.87;;;3.00;;
22929;SDS011;11630;42.660;23.292;2023-08-01T08:48:08;6.10;;;2.95;;
22929;SDS011;11630;42.660;23.292;2023-08-01T08:50:37;7.37;;;3.15;;
22929;SDS011;11630;42.660;23.292;2023-08-01T08:53:09;5.50;;;3.20;;
22929;SDS011;11630;42.660;23.292;2023-08-01T08:55:42;6.30;;;3.37;;
22929;SDS011;11630;42.660;23.292;2023-08-01T08:58:13;5.83;;;3.57;;
22929;SDS011;11630;42.660;23.292;2023-08-01T09:00:45;3.73;;;3.37;;
22929;SDS011;11630;42.660;23.292;2023-08-01T09:03:16;10.25;;;3.40;;
22929;SDS011;11630;42.660;23.292;2023-08-01T09:05:54;7.10;;;3.30;;
22929;SDS011;11630;42.660;23.292;2023-08-01T09:08:21;3.50;;;2.97;;
22929;SDS011;11630;42.660;23.292;2023-08-01T09:10:52;7.30;;;3.13;;
22929;SDS011;11630;42.660;23.292;2023-08-01T09:13:22;11.60;;;3.50;;
22929;SDS011;11630;42.660;23.292;2023-08-01T09:15:53;6.65;;;3.33;;
22929;SDS011;11630;42.660;23.292;2023-08-01T09:18:24;10.15;;;3.95;;
22929;SDS011;11630;42.660;23.292;2023-08-01T09:20:55;5.72;;;4.00;;
22929;SDS011;11630;42.660;23.292;2023-08-01T09:23:26;5.53;;;3.90;;
22929;SDS011;11630;42.660;23.292;2023-08-01T09:25:57;10.63;;;3.93;;
22929;SDS011;11630;42.660;23.292;2023-08-01T09:28:28;4.92;;;3.35;;
22929;SDS011;11630;42.660;23.292;2023-08-01T09:31:01;11.73;;;4.67;;
22929;SDS011;11630;42.660;23.292;2023-08-01T09:33:42;7.10;;;3.87;;
22929;SDS011;11630;42.660;23.292;2023-08-01T09:36:07;5.00;;;3.22;;
22929;SDS011;11630;42.660;23.292;2023-08-01T09:38:38;8.20;;;3.85;;
22929;SDS011;11630;42.660;23.292;2023-08-01T09:41:26;12.73;;;5.37;;
22929;SDS011;11630;42.660;23.292;2023-08-01T09:43:59;4.95;;;3.30;;
22929;SDS011;11630;42.660;23.292;2023-08-01T09:46:29;8.95;;;3.80;;
22929;SDS011;11630;42.660;23.292;2023-08-01T09:49:09;6.33;;;3.30;;
22929;SDS011;11630;42.660;23.292;2023-08-01T09:51:47;5.42;;;3.12;;
22929;SDS011;11630;42.660;23.292;2023-08-01T09:54:20;6.22;;;3.90;;
22929;SDS011;11630;42.660;23.292;2023-08-01T09:56:51;6.90;;;3.40;;
22929;SDS011;11630;42.660;23.292;2023-08-01T09:59:24;5.85;;;3.25;;
22929;SDS011;11630;42.660;23.292;2023-08-01T10:01:54;7.05;;;4.03;;
22929;SDS011;11630;42.660;23.292;2023-08-01T10:04:29;5.70;;;3.70;;
22929;SDS011;11630;42.660;23.292;2023-08-01T10:07:07;9.20;;;3.47;;
22929;SDS011;11630;42.660;23.292;2023-08-01T10:09:36;6.92;;;4.08;;
22929;SDS011;11630;42.660;23.292;2023-08-01T10:12:07;7.30;;;3.67;;
22929;SDS011;11630;42.660;23.292;2023-08-01T10:14:39;9.78;;;3.92;;
22929;SDS011;11630;42.660;23.292;2023-08-01T10:17:10;7.03;;;3.33;;
22929;SDS011;11630;42.660;23.292;2023-08-01T10:19:41;11.40;;;3.98;;
22929;SDS011;11630;42.660;23.292;2023-08-01T10:22:11;7.83;;;3.98;;
22929;SDS011;11630;42.660;23.292;2023-08-01T10:24:43;7.50;;;4.30;;
22929;SDS011;11630;42.660;23.292;2023-08-01T10:27:18;5.05;;;3.45;;
22929;SDS011;11630;42.660;23.292;2023-08-01T10:29:56;5.28;;;3.67;;
22929;SDS011;11630;42.660;23.292;2023-08-01T10:32:29;8.55;;;4.15;;
22929;SDS011;11630;42.660;23.292;2023-08-01T10:35:02;7.10;;;3.40;;
22929;SDS011;11630;42.660;23.292;2023-08-01T10:37:40;6.22;;;3.37;;
22929;SDS011;11630;42.660;23.292;2023-08-01T10:40:16;6.45;;;3.80;;
22929;SDS011;11630;42.660;23.292;2023-08-01T10:42:46;4.05;;;3.22;;
22929;SDS011;11630;42.660;23.292;2023-08-01T10:45:21;8.05;;;3.55;;
22929;SDS011;11630;42.660;23.292;2023-08-01T10:47:53;4.12;;;3.60;;
22929;SDS011;11630;42.660;23.292;2023-08-01T10:50:24;6.33;;;3.92;;
22929;SDS011;11630;42.660;23.292;2023-08-01T10:53:01;4.97;;;3.40;;
22929;SDS011;11630;42.660;23.292;2023-08-01T10:55:42;15.05;;;3.58;;
22929;SDS011;11630;42.660;23.292;2023-08-01T10:58:16;6.90;;;3.65;;
22929;SDS011;11630;42.660;23.292;2023-08-01T11:00:56;8.70;;;3.65;;
22929;SDS011;11630;42.660;23.292;2023-08-01T11:03:19;4.95;;;3.25;;
22929;SDS011;11630;42.660;23.292;2023-08-01T11:05:57;6.70;;;3.70;;
22929;SDS011;11630;42.660;23.292;2023-08-01T11:08:37;8.08;;;3.52;;
22929;SDS011;11630;42.660;23.292;2023-08-01T11:11:08;4.00;;;3.33;;
22929;SDS011;11630;42.660;23.292;2023-08-01T11:13:49;8.05;;;3.20;;
22929;SDS011;11630;42.660;23.292;2023-08-01T11:16:21;4.87;;;2.95;;
22929;SDS011;11630;42.660;23.292;2023-08-01T11:18:51;9.68;;;3.40;;
22929;SDS011;11630;42.660;23.292;2023-08-01T11:21:26;8.20;;;3.58;;
22929;SDS011;11630;42.660;23.292;2023-08-01T11:23:57;4.22;;;3.20;;
22929;SDS011;11630;42.660;23.292;2023-08-01T11:26:27;3.52;;;2.80;;
22929;SDS011;11630;42.660;23.292;2023-08-01T11:29:02;4.92;;;3.05;;
22929;SDS011;11630;42.660;23.292;2023-08-01T11:31:33;6.47;;;3.65;;
22929;SDS011;11630;42.660;23.292;2023-08-01T11:34:04;6.75;;;3.17;;
22929;SDS011;11630;42.660;23.292;2023-08-01T11:36:35;15.32;;;3.15;;
22929;SDS011;11630;42.660;23.292;2023-08-01T11:39:04;3.17;;;2.72;;
22929;SDS011;11630;42.660;23.292;2023-08-01T11:41:35;10.90;;;3.50;;
22929;SDS011;11630;42.660;23.292;2023-08-01T11:44:06;15.72;;;3.58;;
22929;SDS011;11630;42.660;23.292;2023-08-01T11:46:37;10.23;;;3.60;;
22929;SDS011;11630;42.660;23.292;2023-08-01T11:49:08;3.50;;;3.20;;
22929;SDS011;11630;42.660;23.292;2023-08-01T11:51:43;5.67;;;2.72;;
22929;SDS011;11630;42.660;23.292;2023-08-01T11:54:13;7.75;;;4.65;;
22929;SDS011;11630;42.660;23.292;2023-08-01T11:56:43;3.25;;;2.87;;
22929;SDS011;11630;42.660;23.292;2023-08-01T11:59:14;6.47;;;3.10;;
22929;SDS011;11630;42.660;23.292;2023-08-01T12:01:47;5.22;;;2.90;;
22929;SDS011;11630;42.660;23.292;2023-08-01T12:04:29;4.90;;;3.45;;
22929;SDS011;11630;42.660;23.292;2023-08-01T12:06:56;4.47;;;2.62;;
22929;SDS011;11630;42.660;23.292;2023-08-01T12:09:30;5.30;;;2.47;;
22929;SDS011;11630;42.660;23.292;2023-08-01T12:11:59;4.22;;;2.62;;
22929;SDS011;11630;42.660;23.292;2023-08-01T12:14:33;5.35;;;2.70;;
22929;SDS011;11630;42.660;23.292;2023-08-01T12:17:10;3.27;;;2.10;;
22929;SDS011;11630;42.660;23.292;2023-08-01T12:19:41;3.08;;;2.75;;
22929;SDS011;11630;42.660;23.292;2023-08-01T12:22:20;5.58;;;2.67;;
22929;SDS011;11630;42.660;23.292;2023-08-01T12:24:44;6.58;;;3.20;;
22929;SDS011;11630;42.660;23.292;2023-08-01T12:27:15;2.77;;;2.58;;
22929;SDS011;11630;42.660;23.292;2023-08-01T12:29:46;4.37;;;2.67;;
22929;SDS011;11630;42.660;23.292;2023-08-01T12:32:20;5.90;;;2.70;;
22929;SDS011;11630;42.660;23.292;2023-08-01T12:34:51;6.20;;;2.52;;
22929;SDS011;11630;42.660;23.292;2023-08-01T12:37:22;8.33;;;2.50;;
22929;SDS011;11630;42.660;23.292;2023-08-01T12:39:52;2.35;;;2.15;;
22929;SDS011;11630;42.660;23.292;2023-08-01T12:42:23;3.42;;;2.37;;
22929;SDS011;11630;42.660;23.292;2023-08-01T12:44:57;2.85;;;2.00;;
22929;SDS011;11630;42.660;23.292;2023-08-01T12:47:31;5.12;;;1.92;;
22929;SDS011;11630;42.660;23.292;2023-08-01T12:50:02;2.45;;;2.17;;
22929;SDS011;11630;42.660;23.292;2023-08-01T12:52:33;1.87;;;1.52;;
22929;SDS011;11630;42.660;23.292;2023-08-01T12:55:03;3.27;;;2.00;;
22929;SDS011;11630;42.660;23.292;2023-08-01T12:57:33;3.85;;;2.15;;
22929;SDS011;11630;42.660;23.292;2023-08-01T13:00:05;2.22;;;1.85;;
22929;SDS011;11630;42.660;23.292;2023-08-01T13:02:36;4.03;;;2.27;;
22929;SDS011;11630;42.660;23.292;2023-08-01T13:05:07;2.80;;;2.50;;
22929;SDS011;11630;42.660;23.292;2023-08-01T13:07:37;2.42;;;2.12;;
22929;SDS011;11630;42.660;23.292;2023-08-01T13:10:08;6.58;;;2.20;;
22929;SDS011;11630;42.660;23.292;2023-08-01T13:12:40;9.25;;;1.90;;
22929;SDS011;11630;42.660;23.292;2023-08-01T13:15:11;1.90;;;1.77;;
22929;SDS011;11630;42.660;23.292;2023-08-01T13:17:43;3.55;;;2.62;;
22929;SDS011;11630;42.660;23.292;2023-08-01T13:20:14;4.15;;;2.22;;
22929;SDS011;11630;42.660;23.292;2023-08-01T13:22:49;2.55;;;1.80;;
22929;SDS011;11630;42.660;23.292;2023-08-01T13:25:19;2.77;;;1.65;;
22929;SDS011;11630;42.660;23.292;2023-08-01T13:27:50;2.00;;;1.80;;
22929;SDS011;11630;42.660;23.292;2023-08-01T13:30:21;2.17;;;1.87;;
22929;SDS011;11630;42.660;23.292;2023-08-01T13:32:52;2.12;;;1.87;;
22929;SDS011;11630;42.660;23.292;2023-08-01T13:35:23;3.40;;;2.10;;
22929;SDS011;11630;42.660;23.292;2023-08-01T13:37:53;2.47;;;1.55;;
22929;SDS011;11630;42.660;23.292;2023-08-01T13:40:24;2.02;;;1.82;;
22929;SDS011;11630;42.660;23.292;2023-08-01T13:42:54;2.55;;;1.92;;
22929;SDS011;11630;42.660;23.292;2023-08-01T13:45:26;2.10;;;1.92;;
22929;SDS011;11630;42.660;23.292;2023-08-01T13:47:57;2.37;;;1.85;;
22929;SDS011;11630;42.660;23.292;2023-08-01T13:50:28;4.75;;;1.85;;
22929;SDS011;11630;42.660;23.292;2023-08-01T13:52:59;3.08;;;1.85;;
22929;SDS011;11630;42.660;23.292;2023-08-01T13:55:31;4.97;;;2.80;;
22929;SDS011;11630;42.660;23.292;2023-08-01T13:58:01;4.40;;;2.05;;
22929;SDS011;11630;42.660;23.292;2023-08-01T14:00:32;2.40;;;1.95;;
22929;SDS011;11630;42.660;23.292;2023-08-01T14:03:03;2.58;;;2.05;;
22929;SDS011;11630;42.660;23.292;2023-08-01T14:05:34;2.67;;;2.20;;
22929;SDS011;11630;42.660;23.292;2023-08-01T14:08:05;2.20;;;2.00;;
22929;SDS011;11630;42.660;23.292;2023-08-01T14:10:36;2.00;;;1.85;;
22929;SDS011;11630;42.660;23.292;2023-08-01T14:13:07;2.50;;;2.02;;
22929;SDS011;11630;42.660;23.292;2023-08-01T14:15:42;6.80;;;1.92;;
22929;SDS011;11630;42.660;23.292;2023-08-01T14:18:13;6.17;;;2.67;;
22929;SDS011;11630;42.660;23.292;2023-08-01T14:20:47;2.72;;;2.33;;
22929;SDS011;11630;42.660;23.292;2023-08-01T14:23:18;3.12;;;2.12;;
22929;SDS011;11630;42.660;23.292;2023-08-01T14:25:48;2.55;;;2.08;;
22929;SDS011;11630;42.660;23.292;2023-08-01T14:28:19;3.25;;;2.05;;
22929;SDS011;11630;42.660;23.292;2023-08-01T14:30:49;2.90;;;2.25;;
22929;SDS011;11630;42.660;23.292;2023-08-01T14:33:20;2.90;;;2.10;;
22929;SDS011;11630;42.660;23.292;2023-08-01T14:35:51;6.90;;;2.20;;
22929;SDS011;11630;42.660;23.292;2023-08-01T14:38:21;3.22;;;2.08;;
22929;SDS011;11630;42.660;23.292;2023-08-01T14:40:53;4.55;;;2.70;;
22929;SDS011;11630;42.660;23.292;2023-08-01T14:43:24;4.87;;;2.05;;
22929;SDS011;11630;42.660;23.292;2023-08-01T14:45:55;5.20;;;2.10;;
22929;SDS011;11630;42.660;23.292;2023-08-01T14:48:25;3.98;;;2.62;;
22929;SDS011;11630;42.660;23.292;2023-08-01T14:50:56;2.25;;;1.90;;
22929;SDS011;11630;42.660;23.292;2023-08-01T14:53:27;2.33;;;1.98;;
22929;SDS011;11630;42.660;23.292;2023-08-01T14:55:58;3.67;;;2.30;;
22929;SDS011;11630;42.660;23.292;2023-08-01T14:58:29;5.45;;;2.85;;